sensor_id;sensor_type;location;lat;lon;timestamp;P1;durP1;ratioP1;P2;durP2;ratioP2
351;SDS011;164;50.784;6.496;2023-08-06T00:00:11;1.23;;;0.82;;
351;SDS011;164;50.784;6.496;2023-08-06T00:02:40;0.80;;;0.63;;
351;SDS011;164;50.784;6.496;2023-08-06T00:05:07;2.88;;;0.75;;
351;SDS011;164;50.784;6.496;2023-08-06T00:07:34;0.77;;;0.57;;
351;SDS011;164;50.784;6.496;2023-08-06T00:10:02;1.10;;;0.95;;
351;SDS011;164;50.784;6.496;2023-08-06T00:12:29;1.20;;;0.50;;
351;SDS011;164;50.784;6.496;2023-08-06T00:14:56;0.90;;;0.60;;
351;SDS011;164;50.784;6.496;2023-08-06T00:17:23;1.02;;;0.82;;
351;SDS011;164;50.784;6.496;2023-08-06T00:19:52;0.75;;;0.50;;
351;SDS011;164;50.784;6.496;2023-08-06T00:22:19;0.95;;;0.60;;
351;SDS011;164;50.784;6.496;2023-08-06T00:24:46;0.80;;;0.60;;
351;SDS011;164;50.784;6.496;2023-08-06T00:27:13;1.08;;;0.85;;
351;SDS011;164;50.784;6.496;2023-08-06T00:29:41;0.77;;;0.50;;
351;SDS011;164;50.784;6.496;2023-08-06T00:32:08;0.80;;;0.65;;
351;SDS011;164;50.784;6.496;2023-08-06T00:34:35;0.98;;;0.80;;
351;SDS011;164;50.784;6.496;2023-08-06T00:37:04;0.75;;;0.70;;
351;SDS011;164;50.784;6.496;2023-08-06T00:39:31;1.13;;;0.60;;
351;SDS011;164;50.784;6.496;2023-08-06T00:41:59;1.20;;;0.88;;
351;SDS011;164;50.784;6.496;2023-08-06T00:44:26;0.75;;;0.60;;
351;SDS011;164;50.784;6.496;2023-08-06T00:46:53;1.10;;;0.80;;
351;SDS011;164;50.784;6.496;2023-08-06T00:49:20;1.15;;;0.68;;
351;SDS011;164;50.784;6.496;2023-08-06T00:51:48;0.70;;;0.55;;
351;SDS011;164;50.784;6.496;2023-08-06T00:54:16;0.73;;;0.60;;
351;SDS011;164;50.784;6.496;2023-08-06T00:56:44;1.25;;;1.15;;
351;SDS011;164;50.784;6.496;2023-08-06T00:59:11;1.20;;;0.60;;
351;SDS011;164;50.784;6.496;2023-08-06T01:01:39;2.30;;;2.10;;
351;SDS011;164;50.784;6.496;2023-08-06T01:04:06;1.23;;;0.85;;
351;SDS011;164;50.784;6.496;2023-08-06T01:06:35;0.95;;;0.70;;
351;SDS011;164;50.784;6.496;2023-08-06T01:09:05;1.20;;;0.90;;
351;SDS011;164;50.784;6.496;2023-08-06T01:11:38;0.80;;;0.77;;
351;SDS011;164;50.784;6.496;2023-08-06T01:14:12;0.70;;;0.50;;
351;SDS011;164;50.784;6.496;2023-08-06T01:16:40;1.30;;;0.60;;
351;SDS011;164;50.784;6.496;2023-08-06T01:19:15;0.90;;;0.60;;
351;SDS011;164;50.784;6.496;2023-08-06T01:21:43;0.55;;;0.47;;
351;SDS011;164;50.784;6.496;2023-08-06T01:24:11;1.10;;;0.77;;
351;SDS011;164;50.784;6.496;2023-08-06T01:26:39;0.90;;;0.55;;
351;SDS011;164;50.784;6.496;2023-08-06T01:29:10;2.08;;;1.00;;
351;SDS011;164;50.784;6.496;2023-08-06T01:31:39;0.60;;;0.50;;
351;SDS011;164;50.784;6.496;2023-08-06T01:34:09;0.93;;;0.65;;
351;SDS011;164;50.784;6.496;2023-08-06T01:36:36;0.80;;;0.52;;
351;SDS011;164;50.784;6.496;2023-08-06T01:39:05;0.60;;;0.47;;
351;SDS011;164;50.784;6.496;2023-08-06T01:41:33;1.00;;;0.80;;
351;SDS011;164;50.784;6.496;2023-08-06T01:44:00;0.85;;;0.80;;
351;SDS011;164;50.784;6.496;2023-08-06T01:46:27;1.60;;;0.60;;
351;SDS011;164;50.784;6.496;2023-08-06T01:48:55;1.00;;;0.80;;
351;SDS011;164;50.784;6.496;2023-08-06T01:51:22;0.70;;;0.50;;
351;SDS011;164;50.784;6.496;2023-08-06T01:53:49;0.98;;;0.75;;
351;SDS011;164;50.784;6.496;2023-08-06T01:56:18;1.00;;;0.88;;
351;SDS011;164;50.784;6.496;2023-08-06T01:58:45;0.65;;;0.57;;
351;SDS011;164;50.784;6.496;2023-08-06T02:01:12;0.88;;;0.60;;
351;SDS011;164;50.784;6.496;2023-08-06T02:03:40;1.48;;;0.50;;
351;SDS011;164;50.784;6.496;2023-08-06T02:06:07;1.05;;;0.50;;
351;SDS011;164;50.784;6.496;2023-08-06T02:08:34;1.23;;;0.95;;
351;SDS011;164;50.784;6.496;2023-08-06T02:11:01;0.63;;;0.50;;
351;SDS011;164;50.784;6.496;2023-08-06T02:13:30;0.85;;;0.63;;
351;SDS011;164;50.784;6.496;2023-08-06T02:15:57;1.00;;;0.70;;
351;SDS011;164;50.784;6.496;2023-08-06T02:18:25;0.85;;;0.40;;
351;SDS011;164;50.784;6.496;2023-08-06T02:20:55;0.60;;;0.40;;
351;SDS011;164;50.784;6.496;2023-08-06T02:23:23;0.70;;;0.60;;
351;SDS011;164;50.784;6.496;2023-08-06T02:25:56;0.50;;;0.40;;
351;SDS011;164;50.784;6.496;2023-08-06T02:28:23;1.00;;;0.90;;
351;SDS011;164;50.784;6.496;2023-08-06T02:30:52;1.30;;;0.70;;
351;SDS011;164;50.784;6.496;2023-08-06T02:33:19;0.80;;;0.40;;
351;SDS011;164;50.784;6.496;2023-08-06T02:35:46;0.70;;;0.50;;
351;SDS011;164;50.784;6.496;2023-08-06T02:38:14;2.08;;;1.13;;
351;SDS011;164;50.784;6.496;2023-08-06T02:40:44;0.93;;;0.60;;
351;SDS011;164;50.784;6.496;2023-08-06T02:43:11;0.60;;;0.50;;
351;SDS011;164;50.784;6.496;2023-08-06T02:45:38;1.52;;;0.77;;
351;SDS011;164;50.784;6.496;2023-08-06T02:48:07;1.85;;;0.75;;
351;SDS011;164;50.784;6.496;2023-08-06T02:50:37;0.80;;;0.40;;
351;SDS011;164;50.784;6.496;2023-08-06T02:53:05;1.80;;;0.63;;
351;SDS011;164;50.784;6.496;2023-08-06T02:55:33;0.77;;;0.50;;
351;SDS011;164;50.784;6.496;2023-08-06T02:58:00;0.68;;;0.68;;
351;SDS011;164;50.784;6.496;2023-08-06T03:00:27;2.88;;;0.50;;
351;SDS011;164;50.784;6.496;2023-08-06T03:02:55;1.48;;;0.70;;
351;SDS011;164;50.784;6.496;2023-08-06T03:05:24;0.75;;;0.50;;
351;SDS011;164;50.784;6.496;2023-08-06T03:07:51;0.50;;;0.40;;
351;SDS011;164;50.784;6.496;2023-08-06T03:10:18;1.88;;;0.60;;
351;SDS011;164;50.784;6.496;2023-08-06T03:12:45;2.05;;;1.00;;
351;SDS011;164;50.784;6.496;2023-08-06T03:15:13;1.65;;;0.95;;
351;SDS011;164;50.784;6.496;2023-08-06T03:17:40;0.80;;;0.68;;
351;SDS011;164;50.784;6.496;2023-08-06T03:20:07;1.00;;;0.80;;
351;SDS011;164;50.784;6.496;2023-08-06T03:22:36;1.08;;;0.70;;
351;SDS011;164;50.784;6.496;2023-08-06T03:25:03;0.60;;;0.52;;
351;SDS011;164;50.784;6.496;2023-08-06T03:27:30;0.88;;;0.73;;
351;SDS011;164;50.784;6.496;2023-08-06T03:29:58;0.60;;;0.50;;
351;SDS011;164;50.784;6.496;2023-08-06T03:32:26;1.90;;;0.88;;
351;SDS011;164;50.784;6.496;2023-08-06T03:34:53;2.00;;;0.60;;
351;SDS011;164;50.784;6.496;2023-08-06T03:37:20;1.23;;;0.57;;
351;SDS011;164;50.784;6.496;2023-08-06T03:39:49;0.90;;;0.80;;
351;SDS011;164;50.784;6.496;2023-08-06T03:42:16;0.90;;;0.70;;
351;SDS011;164;50.784;6.496;2023-08-06T03:44:43;1.30;;;0.57;;
351;SDS011;164;50.784;6.496;2023-08-06T03:47:10;1.50;;;0.70;;
351;SDS011;164;50.784;6.496;2023-08-06T03:49:38;1.13;;;0.75;;
351;SDS011;164;50.784;6.496;2023-08-06T03:52:05;0.80;;;0.57;;
351;SDS011;164;50.784;6.496;2023-08-06T03:54:32;1.15;;;0.70;;
351;SDS011;164;50.784;6.496;2023-08-06T03:57:01;0.85;;;0.65;;
351;SDS011;164;50.784;6.496;2023-08-06T03:59:29;0.85;;;0.82;;
351;SDS011;164;50.784;6.496;2023-08-06T04:01:56;1.60;;;0.70;;
351;SDS011;164;50.784;6.496;2023-08-06T04:04:23;1.02;;;0.73;;
351;SDS011;164;50.784;6.496;2023-08-06T04:06:50;1.23;;;0.88;;
351;SDS011;164;50.784;6.496;2023-08-06T04:09:18;1.33;;;0.57;;
351;SDS011;164;50.784;6.496;2023-08-06T04:11:45;1.02;;;0.82;;
351;SDS011;164;50.784;6.496;2023-08-06T04:14:13;2.28;;;0.60;;
351;SDS011;164;50.784;6.496;2023-08-06T04:16:40;1.90;;;0.98;;
351;SDS011;164;50.784;6.496;2023-08-06T04:19:08;1.17;;;0.88;;
351;SDS011;164;50.784;6.496;2023-08-06T04:21:35;1.10;;;0.90;;
351;SDS011;164;50.784;6.496;2023-08-06T04:24:02;1.73;;;1.00;;
351;SDS011;164;50.784;6.496;2023-08-06T04:26:30;0.98;;;0.90;;
351;SDS011;164;50.784;6.496;2023-08-06T04:28:57;1.00;;;0.70;;
351;SDS011;164;50.784;6.496;2023-08-06T04:31:26;1.20;;;0.70;;
351;SDS011;164;50.784;6.496;2023-08-06T04:33:53;2.15;;;0.90;;
351;SDS011;164;50.784;6.496;2023-08-06T04:36:20;1.20;;;0.88;;
351;SDS011;164;50.784;6.496;2023-08-06T04:38:47;0.82;;;0.82;;
351;SDS011;164;50.784;6.496;2023-08-06T04:41:15;1.13;;;1.02;;
351;SDS011;164;50.784;6.496;2023-08-06T04:43:42;0.70;;;0.60;;
351;SDS011;164;50.784;6.496;2023-08-06T04:46:09;2.13;;;0.95;;
351;SDS011;164;50.784;6.496;2023-08-06T04:48:38;0.60;;;0.50;;
351;SDS011;164;50.784;6.496;2023-08-06T04:51:05;2.00;;;0.85;;
351;SDS011;164;50.784;6.496;2023-08-06T04:53:32;1.42;;;1.17;;
351;SDS011;164;50.784;6.496;2023-08-06T04:55:59;1.10;;;0.77;;
351;SDS011;164;50.784;6.496;2023-08-06T04:58:26;1.38;;;0.80;;
351;SDS011;164;50.784;6.496;2023-08-06T05:00:54;1.23;;;1.00;;
351;SDS011;164;50.784;6.496;2023-08-06T05:03:21;2.75;;;1.60;;
351;SDS011;164;50.784;6.496;2023-08-06T05:05:50;4.53;;;0.70;;
351;SDS011;164;50.784;6.496;2023-08-06T05:08:17;2.15;;;1.20;;
351;SDS011;164;50.784;6.496;2023-08-06T05:10:44;1.90;;;0.95;;
351;SDS011;164;50.784;6.496;2023-08-06T05:13:11;0.85;;;0.70;;
351;SDS011;164;50.784;6.496;2023-08-06T05:15:39;0.90;;;0.90;;
351;SDS011;164;50.784;6.496;2023-08-06T05:18:07;0.80;;;0.70;;
351;SDS011;164;50.784;6.496;2023-08-06T05:20:35;0.88;;;0.65;;
351;SDS011;164;50.784;6.496;2023-08-06T05:23:04;2.30;;;1.02;;
351;SDS011;164;50.784;6.496;2023-08-06T05:25:31;0.85;;;0.80;;
351;SDS011;164;50.784;6.496;2023-08-06T05:27:59;1.70;;;1.40;;
351;SDS011;164;50.784;6.496;2023-08-06T05:30:26;0.70;;;0.60;;
351;SDS011;164;50.784;6.496;2023-08-06T05:32:54;0.75;;;0.70;;
351;SDS011;164;50.784;6.496;2023-08-06T05:35:21;0.70;;;0.70;;
351;SDS011;164;50.784;6.496;2023-08-06T05:37:49;0.85;;;0.77;;
351;SDS011;164;50.784;6.496;2023-08-06T05:40:18;0.95;;;0.80;;
351;SDS011;164;50.784;6.496;2023-08-06T05:42:45;1.58;;;1.20;;
351;SDS011;164;50.784;6.496;2023-08-06T05:45:12;1.20;;;0.80;;
351;SDS011;164;50.784;6.496;2023-08-06T05:47:39;1.05;;;0.95;;
351;SDS011;164;50.784;6.496;2023-08-06T05:50:07;1.30;;;1.20;;
351;SDS011;164;50.784;6.496;2023-08-06T05:52:35;1.00;;;1.00;;
351;SDS011;164;50.784;6.496;2023-08-06T05:55:02;0.88;;;0.82;;
351;SDS011;164;50.784;6.496;2023-08-06T05:57:31;1.27;;;1.23;;
351;SDS011;164;50.784;6.496;2023-08-06T05:59:58;1.27;;;1.15;;
351;SDS011;164;50.784;6.496;2023-08-06T06:02:26;1.58;;;1.50;;
351;SDS011;164;50.784;6.496;2023-08-06T06:04:53;1.35;;;1.33;;
351;SDS011;164;50.784;6.496;2023-08-06T06:07:20;1.63;;;1.52;;
351;SDS011;164;50.784;6.496;2023-08-06T06:09:47;1.33;;;1.30;;
351;SDS011;164;50.784;6.496;2023-08-06T06:12:14;1.10;;;1.10;;
351;SDS011;164;50.784;6.496;2023-08-06T06:14:43;1.33;;;1.20;;
351;SDS011;164;50.784;6.496;2023-08-06T06:17:10;1.70;;;1.42;;
351;SDS011;164;50.784;6.496;2023-08-06T06:19:37;2.05;;;1.95;;
351;SDS011;164;50.784;6.496;2023-08-06T06:22:05;1.48;;;1.45;;
351;SDS011;164;50.784;6.496;2023-08-06T06:24:32;2.80;;;2.30;;
351;SDS011;164;50.784;6.496;2023-08-06T06:26:59;2.20;;;2.00;;
351;SDS011;164;50.784;6.496;2023-08-06T06:29:27;3.35;;;2.10;;
351;SDS011;164;50.784;6.496;2023-08-06T06:31:55;2.65;;;1.60;;
351;SDS011;164;50.784;6.496;2023-08-06T06:34:23;2.25;;;2.10;;
351;SDS011;164;50.784;6.496;2023-08-06T06:36:50;2.47;;;2.13;;
351;SDS011;164;50.784;6.496;2023-08-06T06:39:17;2.25;;;2.13;;
351;SDS011;164;50.784;6.496;2023-08-06T06:41:44;2.25;;;2.10;;
351;SDS011;164;50.784;6.496;2023-08-06T06:44:12;3.20;;;3.00;;
351;SDS011;164;50.784;6.496;2023-08-06T06:46:40;4.72;;;2.10;;
351;SDS011;164;50.784;6.496;2023-08-06T06:49:08;2.25;;;2.05;;
351;SDS011;164;50.784;6.496;2023-08-06T06:51:35;2.10;;;1.95;;
351;SDS011;164;50.784;6.496;2023-08-06T06:54:03;2.28;;;2.08;;
351;SDS011;164;50.784;6.496;2023-08-06T06:56:30;2.15;;;1.98;;
351;SDS011;164;50.784;6.496;2023-08-06T06:58:57;2.13;;;1.92;;
351;SDS011;164;50.784;6.496;2023-08-06T07:01:24;2.90;;;2.08;;
351;SDS011;164;50.784;6.496;2023-08-06T07:03:52;2.10;;;1.95;;
351;SDS011;164;50.784;6.496;2023-08-06T07:06:20;2.65;;;2.55;;
351;SDS011;164;50.784;6.496;2023-08-06T07:08:47;2.70;;;2.45;;
351;SDS011;164;50.784;6.496;2023-08-06T07:11:14;2.20;;;2.08;;
351;SDS011;164;50.784;6.496;2023-08-06T07:13:42;2.38;;;2.28;;
351;SDS011;164;50.784;6.496;2023-08-06T07:16:09;1.42;;;1.35;;
351;SDS011;164;50.784;6.496;2023-08-06T07:18:36;2.50;;;2.00;;
351;SDS011;164;50.784;6.496;2023-08-06T07:21:03;1.58;;;1.58;;
351;SDS011;164;50.784;6.496;2023-08-06T07:23:32;2.85;;;2.28;;
351;SDS011;164;50.784;6.496;2023-08-06T07:25:59;1.98;;;1.40;;
351;SDS011;164;50.784;6.496;2023-08-06T07:28:26;2.10;;;1.95;;
351;SDS011;164;50.784;6.496;2023-08-06T07:30:53;2.50;;;2.28;;
351;SDS011;164;50.784;6.496;2023-08-06T07:33:20;2.58;;;2.38;;
351;SDS011;164;50.784;6.496;2023-08-06T07:35:48;2.47;;;2.28;;
351;SDS011;164;50.784;6.496;2023-08-06T07:38:15;2.03;;;1.83;;
351;SDS011;164;50.784;6.496;2023-08-06T07:40:44;3.20;;;2.58;;
351;SDS011;164;50.784;6.496;2023-08-06T07:43:11;2.00;;;1.80;;
351;SDS011;164;50.784;6.496;2023-08-06T07:45:39;6.90;;;2.30;;
351;SDS011;164;50.784;6.496;2023-08-06T07:48:06;2.80;;;2.20;;
351;SDS011;164;50.784;6.496;2023-08-06T07:50:34;2.30;;;2.10;;
351;SDS011;164;50.784;6.496;2023-08-06T07:53:01;2.10;;;1.98;;
351;SDS011;164;50.784;6.496;2023-08-06T07:55:29;1.77;;;1.75;;
351;SDS011;164;50.784;6.496;2023-08-06T07:57:57;2.20;;;2.00;;
351;SDS011;164;50.784;6.496;2023-08-06T08:00:24;1.73;;;1.70;;
351;SDS011;164;50.784;6.496;2023-08-06T08:02:51;4.60;;;1.80;;
351;SDS011;164;50.784;6.496;2023-08-06T08:05:19;2.25;;;1.20;;
351;SDS011;164;50.784;6.496;2023-08-06T08:07:46;1.02;;;0.95;;
351;SDS011;164;50.784;6.496;2023-08-06T08:10:13;0.90;;;0.80;;
351;SDS011;164;50.784;6.496;2023-08-06T08:12:40;2.15;;;1.27;;
351;SDS011;164;50.784;6.496;2023-08-06T08:15:09;1.13;;;0.88;;
351;SDS011;164;50.784;6.496;2023-08-06T08:17:36;0.63;;;0.63;;
351;SDS011;164;50.784;6.496;2023-08-06T08:20:04;0.60;;;0.45;;
351;SDS011;164;50.784;6.496;2023-08-06T08:22:31;0.70;;;0.65;;
351;SDS011;164;50.784;6.496;2023-08-06T08:24:59;0.75;;;0.50;;
351;SDS011;164;50.784;6.496;2023-08-06T08:27:26;0.70;;;0.50;;
351;SDS011;164;50.784;6.496;2023-08-06T08:29:53;0.80;;;0.50;;
351;SDS011;164;50.784;6.496;2023-08-06T08:32:22;0.90;;;0.75;;
351;SDS011;164;50.784;6.496;2023-08-06T08:34:49;0.70;;;0.52;;
351;SDS011;164;50.784;6.496;2023-08-06T08:37:16;0.73;;;0.70;;
351;SDS011;164;50.784;6.496;2023-08-06T08:39:43;1.95;;;0.98;;
351;SDS011;164;50.784;6.496;2023-08-06T08:42:10;0.82;;;0.50;;
351;SDS011;164;50.784;6.496;2023-08-06T08:44:38;0.75;;;0.40;;
351;SDS011;164;50.784;6.496;2023-08-06T08:47:05;1.30;;;0.70;;
351;SDS011;164;50.784;6.496;2023-08-06T08:49:35;0.50;;;0.40;;
351;SDS011;164;50.784;6.496;2023-08-06T08:52:03;0.50;;;0.50;;
351;SDS011;164;50.784;6.496;2023-08-06T08:54:31;0.60;;;0.40;;
351;SDS011;164;50.784;6.496;2023-08-06T08:56:59;0.90;;;0.40;;
351;SDS011;164;50.784;6.496;2023-08-06T08:59:27;0.50;;;0.30;;
351;SDS011;164;50.784;6.496;2023-08-06T09:01:54;0.70;;;0.40;;
351;SDS011;164;50.784;6.496;2023-08-06T09:04:22;0.60;;;0.38;;
351;SDS011;164;50.784;6.496;2023-08-06T09:06:51;0.50;;;0.30;;
351;SDS011;164;50.784;6.496;2023-08-06T09:09:20;0.50;;;0.30;;
351;SDS011;164;50.784;6.496;2023-08-06T09:11:49;0.63;;;0.40;;
351;SDS011;164;50.784;6.496;2023-08-06T09:14:16;0.55;;;0.30;;
351;SDS011;164;50.784;6.496;2023-08-06T09:16:44;0.70;;;0.40;;
351;SDS011;164;50.784;6.496;2023-08-06T09:19:12;0.90;;;0.40;;
351;SDS011;164;50.784;6.496;2023-08-06T09:21:40;0.52;;;0.40;;
351;SDS011;164;50.784;6.496;2023-08-06T09:24:09;1.00;;;0.80;;
351;SDS011;164;50.784;6.496;2023-08-06T09:26:36;1.48;;;1.17;;
351;SDS011;164;50.784;6.496;2023-08-06T09:29:05;1.13;;;1.08;;
351;SDS011;164;50.784;6.496;2023-08-06T09:31:33;1.40;;;1.23;;
351;SDS011;164;50.784;6.496;2023-08-06T09:34:00;1.75;;;1.60;;
351;SDS011;164;50.784;6.496;2023-08-06T09:36:27;1.65;;;1.10;;
351;SDS011;164;50.784;6.496;2023-08-06T09:38:55;1.80;;;1.70;;
351;SDS011;164;50.784;6.496;2023-08-06T09:41:29;1.30;;;1.10;;
351;SDS011;164;50.784;6.496;2023-08-06T09:43:57;1.38;;;1.27;;
351;SDS011;164;50.784;6.496;2023-08-06T09:46:24;1.92;;;1.70;;
351;SDS011;164;50.784;6.496;2023-08-06T09:48:51;1.75;;;1.27;;
351;SDS011;164;50.784;6.496;2023-08-06T09:51:19;2.55;;;2.10;;
351;SDS011;164;50.784;6.496;2023-08-06T09:53:46;2.17;;;1.23;;
351;SDS011;164;50.784;6.496;2023-08-06T09:56:16;1.35;;;1.25;;
351;SDS011;164;50.784;6.496;2023-08-06T09:58:45;1.75;;;1.13;;
351;SDS011;164;50.784;6.496;2023-08-06T10:01:14;1.95;;;1.83;;
351;SDS011;164;50.784;6.496;2023-08-06T10:03:42;1.20;;;1.10;;
351;SDS011;164;50.784;6.496;2023-08-06T10:06:11;3.97;;;1.30;;
351;SDS011;164;50.784;6.496;2023-08-06T10:08:38;1.27;;;1.02;;
351;SDS011;164;50.784;6.496;2023-08-06T10:11:07;1.67;;;1.48;;
351;SDS011;164;50.784;6.496;2023-08-06T10:13:35;1.95;;;1.30;;
351;SDS011;164;50.784;6.496;2023-08-06T10:16:05;3.30;;;0.77;;
351;SDS011;164;50.784;6.496;2023-08-06T10:18:32;2.42;;;0.77;;
351;SDS011;164;50.784;6.496;2023-08-06T10:21:00;3.03;;;1.30;;
351;SDS011;164;50.784;6.496;2023-08-06T10:23:33;2.45;;;1.05;;
351;SDS011;164;50.784;6.496;2023-08-06T10:26:02;1.02;;;0.95;;
351;SDS011;164;50.784;6.496;2023-08-06T10:28:36;1.67;;;1.10;;
351;SDS011;164;50.784;6.496;2023-08-06T10:31:05;1.67;;;0.95;;
351;SDS011;164;50.784;6.496;2023-08-06T10:33:42;0.82;;;0.60;;
351;SDS011;164;50.784;6.496;2023-08-06T10:36:11;2.70;;;0.73;;
351;SDS011;164;50.784;6.496;2023-08-06T10:38:45;1.45;;;1.20;;
351;SDS011;164;50.784;6.496;2023-08-06T10:41:15;0.90;;;0.82;;
351;SDS011;164;50.784;6.496;2023-08-06T10:43:43;1.13;;;1.02;;
351;SDS011;164;50.784;6.496;2023-08-06T10:46:21;1.88;;;1.30;;
351;SDS011;164;50.784;6.496;2023-08-06T10:48:49;1.13;;;0.98;;
351;SDS011;164;50.784;6.496;2023-08-06T10:51:16;2.15;;;1.13;;
351;SDS011;164;50.784;6.496;2023-08-06T10:53:44;1.85;;;1.10;;
351;SDS011;164;50.784;6.496;2023-08-06T10:56:12;1.90;;;1.20;;
351;SDS011;164;50.784;6.496;2023-08-06T10:58:39;3.50;;;1.65;;
351;SDS011;164;50.784;6.496;2023-08-06T11:01:07;2.65;;;1.30;;
351;SDS011;164;50.784;6.496;2023-08-06T11:03:36;1.55;;;1.33;;
351;SDS011;164;50.784;6.496;2023-08-06T11:06:03;2.10;;;1.48;;
351;SDS011;164;50.784;6.496;2023-08-06T11:08:33;1.48;;;1.45;;
351;SDS011;164;50.784;6.496;2023-08-06T11:11:07;2.00;;;1.83;;
351;SDS011;164;50.784;6.496;2023-08-06T11:13:36;1.60;;;1.50;;
351;SDS011;164;50.784;6.496;2023-08-06T11:16:03;3.13;;;1.30;;
351;SDS011;164;50.784;6.496;2023-08-06T11:18:31;1.67;;;1.65;;
351;SDS011;164;50.784;6.496;2023-08-06T11:20:59;1.40;;;1.20;;
351;SDS011;164;50.784;6.496;2023-08-06T11:23:27;3.20;;;1.50;;
351;SDS011;164;50.784;6.496;2023-08-06T11:25:54;1.65;;;1.63;;
351;SDS011;164;50.784;6.496;2023-08-06T11:28:21;1.00;;;1.00;;
351;SDS011;164;50.784;6.496;2023-08-06T11:30:49;1.33;;;1.23;;
351;SDS011;164;50.784;6.496;2023-08-06T11:33:19;1.13;;;0.95;;
351;SDS011;164;50.784;6.496;2023-08-06T11:35:47;1.00;;;0.90;;
351;SDS011;164;50.784;6.496;2023-08-06T11:38:16;1.23;;;0.90;;
351;SDS011;164;50.784;6.496;2023-08-06T11:40:43;1.95;;;1.25;;
351;SDS011;164;50.784;6.496;2023-08-06T11:43:11;0.93;;;0.90;;
351;SDS011;164;50.784;6.496;2023-08-06T11:45:39;3.63;;;1.40;;
351;SDS011;164;50.784;6.496;2023-08-06T11:48:07;2.25;;;1.60;;
351;SDS011;164;50.784;6.496;2023-08-06T11:50:36;5.07;;;1.15;;
351;SDS011;164;50.784;6.496;2023-08-06T11:53:04;1.95;;;1.20;;
351;SDS011;164;50.784;6.496;2023-08-06T11:55:33;1.33;;;1.00;;
351;SDS011;164;50.784;6.496;2023-08-06T11:58:02;1.45;;;1.05;;
351;SDS011;164;50.784;6.496;2023-08-06T12:00:30;1.05;;;0.90;;
351;SDS011;164;50.784;6.496;2023-08-06T12:02:57;0.85;;;0.85;;
351;SDS011;164;50.784;6.496;2023-08-06T12:05:28;1.00;;;0.90;;
351;SDS011;164;50.784;6.496;2023-08-06T12:07:56;1.60;;;0.75;;
351;SDS011;164;50.784;6.496;2023-08-06T12:10:24;0.80;;;0.70;;
351;SDS011;164;50.784;6.496;2023-08-06T12:12:53;0.63;;;0.57;;
351;SDS011;164;50.784;6.496;2023-08-06T12:15:20;0.85;;;0.82;;
351;SDS011;164;50.784;6.496;2023-08-06T12:17:48;0.80;;;0.70;;
351;SDS011;164;50.784;6.496;2023-08-06T12:20:15;1.20;;;0.85;;
351;SDS011;164;50.784;6.496;2023-08-06T12:22:42;0.60;;;0.50;;
351;SDS011;164;50.784;6.496;2023-08-06T12:25:11;0.90;;;0.68;;
351;SDS011;164;50.784;6.496;2023-08-06T12:27:38;1.38;;;0.60;;
351;SDS011;164;50.784;6.496;2023-08-06T12:30:07;0.50;;;0.50;;
351;SDS011;164;50.784;6.496;2023-08-06T12:32:35;0.90;;;0.82;;
351;SDS011;164;50.784;6.496;2023-08-06T12:35:03;0.60;;;0.50;;
351;SDS011;164;50.784;6.496;2023-08-06T12:37:32;1.00;;;0.52;;
351;SDS011;164;50.784;6.496;2023-08-06T12:39:59;0.88;;;0.38;;
351;SDS011;164;50.784;6.496;2023-08-06T12:42:27;1.83;;;0.65;;
351;SDS011;164;50.784;6.496;2023-08-06T12:44:54;0.90;;;0.77;;
351;SDS011;164;50.784;6.496;2023-08-06T12:47:23;2.92;;;0.90;;
351;SDS011;164;50.784;6.496;2023-08-06T12:49:50;3.65;;;1.08;;
351;SDS011;164;50.784;6.496;2023-08-06T12:52:17;0.90;;;0.88;;
351;SDS011;164;50.784;6.496;2023-08-06T12:54:45;0.80;;;0.80;;
351;SDS011;164;50.784;6.496;2023-08-06T12:57:12;1.10;;;1.00;;
351;SDS011;164;50.784;6.496;2023-08-06T12:59:40;8.82;;;1.50;;
351;SDS011;164;50.784;6.496;2023-08-06T13:02:07;2.25;;;1.55;;
351;SDS011;164;50.784;6.496;2023-08-06T13:04:36;1.45;;;1.25;;
351;SDS011;164;50.784;6.496;2023-08-06T13:07:03;3.88;;;1.88;;
351;SDS011;164;50.784;6.496;2023-08-06T13:09:31;2.08;;;1.95;;
351;SDS011;164;50.784;6.496;2023-08-06T13:11:59;2.30;;;1.40;;
351;SDS011;164;50.784;6.496;2023-08-06T13:14:30;2.90;;;1.58;;
351;SDS011;164;50.784;6.496;2023-08-06T13:16:57;2.30;;;1.27;;
351;SDS011;164;50.784;6.496;2023-08-06T13:19:24;1.25;;;1.20;;
351;SDS011;164;50.784;6.496;2023-08-06T13:21:57;3.45;;;1.42;;
351;SDS011;164;50.784;6.496;2023-08-06T13:24:25;1.85;;;1.20;;
351;SDS011;164;50.784;6.496;2023-08-06T13:26:53;1.25;;;1.15;;
351;SDS011;164;50.784;6.496;2023-08-06T13:29:20;3.20;;;1.15;;
351;SDS011;164;50.784;6.496;2023-08-06T13:31:48;3.45;;;1.30;;
351;SDS011;164;50.784;6.496;2023-08-06T13:34:15;1.40;;;1.10;;
351;SDS011;164;50.784;6.496;2023-08-06T13:36:42;1.45;;;1.20;;
351;SDS011;164;50.784;6.496;2023-08-06T13:39:11;1.20;;;1.00;;
351;SDS011;164;50.784;6.496;2023-08-06T13:41:41;1.45;;;1.20;;
351;SDS011;164;50.784;6.496;2023-08-06T13:44:08;0.55;;;0.52;;
351;SDS011;164;50.784;6.496;2023-08-06T13:46:39;1.10;;;1.00;;
351;SDS011;164;50.784;6.496;2023-08-06T13:49:06;1.00;;;0.70;;
351;SDS011;164;50.784;6.496;2023-08-06T13:51:33;0.80;;;0.80;;
351;SDS011;164;50.784;6.496;2023-08-06T13:54:01;0.80;;;0.80;;
351;SDS011;164;50.784;6.496;2023-08-06T13:56:29;1.52;;;0.93;;
351;SDS011;164;50.784;6.496;2023-08-06T13:58:57;1.50;;;0.95;;
351;SDS011;164;50.784;6.496;2023-08-06T14:01:24;2.83;;;1.10;;
351;SDS011;164;50.784;6.496;2023-08-06T14:03:51;1.33;;;0.85;;
351;SDS011;164;50.784;6.496;2023-08-06T14:06:19;1.48;;;0.80;;
351;SDS011;164;50.784;6.496;2023-08-06T14:08:46;1.23;;;1.00;;
351;SDS011;164;50.784;6.496;2023-08-06T14:11:13;0.75;;;0.68;;
351;SDS011;164;50.784;6.496;2023-08-06T14:13:42;0.88;;;0.77;;
351;SDS011;164;50.784;6.496;2023-08-06T14:16:09;1.85;;;0.40;;
351;SDS011;164;50.784;6.496;2023-08-06T14:18:37;1.02;;;0.95;;
351;SDS011;164;50.784;6.496;2023-08-06T14:21:04;1.17;;;0.52;;
351;SDS011;164;50.784;6.496;2023-08-06T14:23:31;0.70;;;0.43;;
351;SDS011;164;50.784;6.496;2023-08-06T14:25:59;0.65;;;0.50;;
351;SDS011;164;50.784;6.496;2023-08-06T14:28:26;0.70;;;0.50;;
351;SDS011;164;50.784;6.496;2023-08-06T14:30:54;0.60;;;0.40;;
351;SDS011;164;50.784;6.496;2023-08-06T14:33:21;1.08;;;0.50;;
351;SDS011;164;50.784;6.496;2023-08-06T14:35:49;0.65;;;0.52;;
351;SDS011;164;50.784;6.496;2023-08-06T14:38:16;1.45;;;0.70;;
351;SDS011;164;50.784;6.496;2023-08-06T14:40:43;2.45;;;0.50;;
351;SDS011;164;50.784;6.496;2023-08-06T14:43:11;0.60;;;0.60;;
351;SDS011;164;50.784;6.496;2023-08-06T14:45:38;0.60;;;0.50;;
351;SDS011;164;50.784;6.496;2023-08-06T14:48:07;0.80;;;0.70;;
351;SDS011;164;50.784;6.496;2023-08-06T14:50:34;0.77;;;0.50;;
351;SDS011;164;50.784;6.496;2023-08-06T14:53:01;1.00;;;0.57;;
351;SDS011;164;50.784;6.496;2023-08-06T14:55:29;3.53;;;1.15;;
351;SDS011;164;50.784;6.496;2023-08-06T14:57:56;0.60;;;0.40;;
351;SDS011;164;50.784;6.496;2023-08-06T15:00:23;0.98;;;0.55;;
351;SDS011;164;50.784;6.496;2023-08-06T15:02:51;0.60;;;0.50;;
351;SDS011;164;50.784;6.496;2023-08-06T15:05:19;1.05;;;0.50;;
351;SDS011;164;50.784;6.496;2023-08-06T15:07:47;0.73;;;0.50;;
351;SDS011;164;50.784;6.496;2023-08-06T15:10:14;0.60;;;0.55;;
351;SDS011;164;50.784;6.496;2023-08-06T15:12:41;0.60;;;0.50;;
351;SDS011;164;50.784;6.496;2023-08-06T15:15:09;0.85;;;0.50;;
351;SDS011;164;50.784;6.496;2023-08-06T15:17:36;0.60;;;0.52;;
351;SDS011;164;50.784;6.496;2023-08-06T15:20:04;1.00;;;0.70;;
351;SDS011;164;50.784;6.496;2023-08-06T15:22:33;0.60;;;0.60;;
351;SDS011;164;50.784;6.496;2023-08-06T15:25:00;0.80;;;0.60;;
351;SDS011;164;50.784;6.496;2023-08-06T15:27:29;0.75;;;0.65;;
351;SDS011;164;50.784;6.496;2023-08-06T15:29:57;0.82;;;0.75;;
351;SDS011;164;50.784;6.496;2023-08-06T15:32:24;0.65;;;0.50;;
351;SDS011;164;50.784;6.496;2023-08-06T15:34:52;0.93;;;0.43;;
351;SDS011;164;50.784;6.496;2023-08-06T15:37:19;3.67;;;0.80;;
351;SDS011;164;50.784;6.496;2023-08-06T15:39:48;0.60;;;0.50;;
351;SDS011;164;50.784;6.496;2023-08-06T15:42:15;1.15;;;0.70;;
351;SDS011;164;50.784;6.496;2023-08-06T15:44:42;0.70;;;0.70;;
351;SDS011;164;50.784;6.496;2023-08-06T15:47:10;1.00;;;0.70;;